createdAt,value
2022-10-28T00:01:25.099Z,15.20
2022-10-28T00:03:57.605Z,15.80
2022-10-28T00:06:42.035Z,15.10
2022-10-28T00:09:12.268Z,14.20
2022-10-28T00:11:41.230Z,13.50
2022-10-28T00:14:11.669Z,14.20
2022-10-28T00:16:40.399Z,12.60
2022-10-28T00:19:13.046Z,11.40
2022-10-28T00:21:46.048Z,11.70
2022-10-28T00:35:34.404Z,11.60
2022-10-28T00:38:01.908Z,10.90
2022-10-28T00:40:34.663Z,11.80
2022-10-28T00:43:02.001Z,11.10
2022-10-28T00:45:29.347Z,10.70
2022-10-28T00:48:03.856Z,10.60
2022-10-28T00:53:31.089Z,10.50
2022-10-28T00:56:01.592Z,11.30
2022-10-28T00:58:29.520Z,11.40
2022-10-28T01:00:56.758Z,11.20
2022-10-28T01:03:24.022Z,11.20
2022-10-28T01:05:52.769Z,11.30
2022-10-28T01:08:20.069Z,10.50
2022-10-28T01:11:15.569Z,11.40
2022-10-28T01:14:37.964Z,12.00
2022-10-28T01:17:12.191Z,14.30
2022-10-28T01:20:36.067Z,13.70
2022-10-28T01:23:31.893Z,12.80
2022-10-28T01:26:33.936Z,12.60
2022-10-28T01:29:24.616Z,13.50
2022-10-28T01:31:58.709Z,14.60
2022-10-28T01:35:04.210Z,15.50
2022-10-28T01:37:47.261Z,13.40
2022-10-28T01:40:37.772Z,12.10
2022-10-28T01:43:26.364Z,12.00
2022-10-28T01:46:21.327Z,11.70
2022-10-28T01:49:11.011Z,11.80
2022-10-28T01:51:45.937Z,12.40
2022-10-28T01:54:18.904Z,12.50
2022-10-28T01:56:48.242Z,13.80
2022-10-28T01:59:24.408Z,12.90
2022-10-28T02:01:51.552Z,14.30
2022-10-28T02:04:18.594Z,11.50
2022-10-28T02:06:50.549Z,13.60
2022-10-28T02:10:03.441Z,12.10
2022-10-28T02:12:39.123Z,13.30
2022-10-28T02:15:36.832Z,12.00
2022-10-28T02:19:01.328Z,13.00
2022-10-28T02:21:46.765Z,13.00
2022-10-28T02:24:25.987Z,12.10
2022-10-28T02:27:05.634Z,11.10
2022-10-28T02:29:49.431Z,13.50
2022-10-28T02:32:24.796Z,13.60
2022-10-28T02:34:57.003Z,16.80
2022-10-28T02:37:35.034Z,15.20
2022-10-28T02:40:12.214Z,14.00
2022-10-28T02:43:03.692Z,14.60
2022-10-28T02:45:49.007Z,14.00
2022-10-28T02:48:28.270Z,11.70
2022-10-28T02:51:07.228Z,15.40
2022-10-28T02:53:47.154Z,18.10
2022-10-28T02:56:17.639Z,16.90
2022-10-28T02:58:44.887Z,13.80
2022-10-28T03:01:11.821Z,12.10
2022-10-28T03:03:39.349Z,12.40
2022-10-28T03:06:06.275Z,13.20
2022-10-28T03:08:33.095Z,14.10
2022-10-28T03:10:59.949Z,14.50
2022-10-28T03:13:26.722Z,14.20
2022-10-28T03:15:53.562Z,12.80
2022-10-28T03:18:20.429Z,14.30
2022-10-28T03:20:47.253Z,15.60
2022-10-28T03:23:14.083Z,15.10
2022-10-28T03:25:40.904Z,14.30
2022-10-28T03:28:07.774Z,14.10
2022-10-28T03:30:34.627Z,13.40
2022-10-28T03:33:01.399Z,13.40
2022-10-28T03:35:28.222Z,11.90
2022-10-28T03:37:55.062Z,12.40
2022-10-28T03:40:22.039Z,14.50
2022-10-28T03:42:48.985Z,14.50
2022-10-28T03:45:16.143Z,13.70
2022-10-28T03:47:43.264Z,12.00
2022-10-28T03:50:10.382Z,11.80
2022-10-28T03:52:37.579Z,11.70
2022-10-28T03:55:05.312Z,11.90
2022-10-28T03:57:33.070Z,12.30
2022-10-28T04:00:00.173Z,14.10
2022-10-28T04:02:27.600Z,13.40
2022-10-28T04:04:54.868Z,10.80
2022-10-28T04:07:21.982Z,13.30
2022-10-28T04:09:50.997Z,10.40
2022-10-28T04:12:18.721Z,11.20
2022-10-28T04:14:45.762Z,10.70
2022-10-28T04:17:12.900Z,8.20
2022-10-28T04:19:40.124Z,10.10
2022-10-28T04:22:08.752Z,11.40
2022-10-28T04:24:35.804Z,11.40
2022-10-28T04:27:03.349Z,9.50
2022-10-28T04:29:31.999Z,9.10
2022-10-28T04:31:59.212Z,9.90
2022-10-28T04:34:26.227Z,9.90
2022-10-28T04:36:53.471Z,10.60
2022-10-28T04:39:20.459Z,12.00
2022-10-28T04:41:47.862Z,12.30
2022-10-28T04:44:14.968Z,12.20
2022-10-28T04:46:42.175Z,13.20
2022-10-28T04:49:09.672Z,11.40
2022-10-28T04:51:36.789Z,12.00
2022-10-28T04:54:04.041Z,13.30
2022-10-28T04:56:32.822Z,14.20
2022-10-28T04:58:59.882Z,13.40
2022-10-28T05:01:27.188Z,11.80
2022-10-28T05:03:54.388Z,11.60
2022-10-28T05:06:21.486Z,11.20
2022-10-28T05:08:48.581Z,12.00
2022-10-28T05:11:15.608Z,11.40
2022-10-28T05:13:42.736Z,8.90
2022-10-28T05:16:09.814Z,11.10
2022-10-28T05:18:37.077Z,11.60
2022-10-28T05:21:04.440Z,13.20
2022-10-28T05:23:31.406Z,12.10
2022-10-28T05:25:58.567Z,12.60
2022-10-28T05:28:25.828Z,12.50
2022-10-28T05:30:52.908Z,11.30
2022-10-28T05:33:20.082Z,11.00
2022-10-28T05:35:47.108Z,12.60
2022-10-28T05:38:14.269Z,12.70
2022-10-28T05:40:41.694Z,12.80
2022-10-28T05:43:09.991Z,13.00
2022-10-28T05:45:37.442Z,11.80
2022-10-28T05:48:04.773Z,12.80
2022-10-28T05:50:31.921Z,11.90
2022-10-28T05:52:58.800Z,12.30
2022-10-28T05:55:29.073Z,12.10
2022-10-28T05:57:57.347Z,23.60
2022-10-28T06:00:26.625Z,19.50
2022-10-28T06:03:08.871Z,15.60
2022-10-28T06:05:38.932Z,14.40
2022-10-28T06:08:06.131Z,15.90
2022-10-28T06:10:33.896Z,15.80
2022-10-28T06:13:00.615Z,16.50
2022-10-28T06:15:27.594Z,15.00
2022-10-28T06:17:54.539Z,13.50
2022-10-28T06:20:21.283Z,16.10
2022-10-28T06:22:50.486Z,16.60
2022-10-28T06:25:19.868Z,22.90
2022-10-28T06:27:58.253Z,16.30
2022-10-28T06:30:26.484Z,18.00
2022-10-28T06:32:56.400Z,16.30
2022-10-28T06:35:23.231Z,14.90
2022-10-28T06:37:56.584Z,18.40
2022-10-28T06:40:24.757Z,21.40
2022-10-28T06:43:04.151Z,23.10
2022-10-28T06:45:33.073Z,20.80
2022-10-28T06:48:05.490Z,22.10
2022-10-28T06:50:34.463Z,21.10
2022-10-28T06:53:02.344Z,20.00
2022-10-28T06:55:30.521Z,19.70
2022-10-28T06:58:02.323Z,19.30
2022-10-28T07:00:34.242Z,17.40
2022-10-28T07:03:02.612Z,15.70
2022-10-28T07:05:29.482Z,15.40
2022-10-28T07:07:56.727Z,15.70
2022-10-28T07:10:23.818Z,16.20
2022-10-28T07:12:53.286Z,15.30
2022-10-28T07:15:20.946Z,14.50
2022-10-28T07:17:56.462Z,14.80
2022-10-28T07:20:26.718Z,13.40
2022-10-28T07:22:59.205Z,14.80
2022-10-28T07:25:28.142Z,14.20
2022-10-28T07:27:57.975Z,14.90
2022-10-28T07:30:25.893Z,15.20
2022-10-28T07:32:53.044Z,15.10
2022-10-28T07:35:20.588Z,13.60
2022-10-28T07:37:47.519Z,13.60
2022-10-28T07:40:14.380Z,13.90
2022-10-28T07:42:41.202Z,15.40
2022-10-28T07:45:08.699Z,15.00
2022-10-28T07:47:35.581Z,14.40
2022-10-28T07:50:03.920Z,14.00
2022-10-28T07:52:30.802Z,13.80
2022-10-28T07:54:57.631Z,13.00
2022-10-28T07:57:24.581Z,14.10
2022-10-28T07:59:51.630Z,14.00
2022-10-28T08:02:21.767Z,15.20
2022-10-28T08:04:48.597Z,12.10
2022-10-28T08:07:15.979Z,12.10
2022-10-28T08:09:42.983Z,10.50
2022-10-28T08:12:13.457Z,11.70
2022-10-28T08:14:40.882Z,12.30
2022-10-28T08:17:08.096Z,11.80
2022-10-28T08:19:34.887Z,10.90
2022-10-28T08:22:02.411Z,9.80
2022-10-28T08:24:29.330Z,9.90
2022-10-28T08:26:56.645Z,9.40
2022-10-28T08:29:27.719Z,11.40
2022-10-28T08:31:57.386Z,9.60
2022-10-28T08:34:28.792Z,11.10
2022-10-28T08:36:56.221Z,9.10
2022-10-28T08:39:23.055Z,9.10
2022-10-28T08:42:22.029Z,9.70
2022-10-28T08:45:19.673Z,9.30
2022-10-28T08:48:10.581Z,11.10
2022-10-28T08:50:49.217Z,15.70
2022-10-28T08:53:26.543Z,8.90
2022-10-28T08:55:59.499Z,8.90
2022-10-28T08:58:32.627Z,9.60
2022-10-28T09:00:59.660Z,9.00
2022-10-28T09:03:34.440Z,7.60
2022-10-28T09:06:07.168Z,8.00
2022-10-28T09:08:40.846Z,8.90
2022-10-28T09:11:10.311Z,7.40
2022-10-28T09:14:15.906Z,8.10
2022-10-28T09:16:48.373Z,7.00
2022-10-28T09:19:30.064Z,7.90
2022-10-28T09:22:12.278Z,6.60
2022-10-28T09:24:48.150Z,7.80
2022-10-28T09:27:58.647Z,7.60
2022-10-28T09:31:10.593Z,6.80
2022-10-28T09:33:50.772Z,7.50
2022-10-28T09:36:42.771Z,8.70
2022-10-28T09:39:19.707Z,7.30
2022-10-28T09:41:50.481Z,8.10
2022-10-28T09:44:41.152Z,8.70
2022-10-28T09:47:18.832Z,9.10
2022-10-28T09:49:48.183Z,9.30
2022-10-28T09:53:19.680Z,8.60
2022-10-28T09:55:46.568Z,8.80
2022-10-28T09:58:13.385Z,8.90
2022-10-28T10:00:40.800Z,10.40
2022-10-28T10:03:08.160Z,7.10
2022-10-28T10:05:42.907Z,9.40
2022-10-28T10:08:15.372Z,7.50
2022-10-28T10:10:57.274Z,9.20
2022-10-28T10:13:29.107Z,7.00
2022-10-28T10:16:05.046Z,15.00
2022-10-28T10:18:32.511Z,7.60
2022-10-28T10:21:00.030Z,9.00
2022-10-28T10:23:36.335Z,9.60
2022-10-28T10:26:13.067Z,12.00
2022-10-28T10:28:49.326Z,8.00
2022-10-28T10:31:26.513Z,8.00
2022-10-28T10:33:56.870Z,8.20
2022-10-28T10:36:28.433Z,8.80
2022-10-28T10:39:01.575Z,9.90
2022-10-28T10:41:43.201Z,8.90
2022-10-28T10:44:22.041Z,8.40
2022-10-28T10:46:55.032Z,8.20
2022-10-28T10:49:21.747Z,7.40
2022-10-28T10:51:53.584Z,8.30
2022-10-28T10:54:20.619Z,10.50
2022-10-28T10:56:47.544Z,8.40
2022-10-28T10:59:29.876Z,8.50
2022-10-28T11:01:59.037Z,9.50
2022-10-28T11:04:29.746Z,14.80
2022-10-28T11:06:57.765Z,9.00
2022-10-28T11:09:37.961Z,32.60
2022-10-28T11:12:38.394Z,8.40
2022-10-28T11:15:11.410Z,7.00
2022-10-28T11:17:38.653Z,8.30
2022-10-28T11:20:25.576Z,11.20
2022-10-28T11:23:19.986Z,31.10
2022-10-28T11:25:52.814Z,5.60
2022-10-28T11:29:07.056Z,5.60
2022-10-28T11:32:22.151Z,7.80
2022-10-28T11:38:23.887Z,4.90
2022-10-28T11:41:21.681Z,5.70
2022-10-28T11:43:57.672Z,5.30
2022-10-28T11:47:06.211Z,5.20
2022-10-28T11:50:17.593Z,5.00
2022-10-28T11:53:20.066Z,17.70
2022-10-28T11:56:20.886Z,7.00
2022-10-28T11:59:25.009Z,8.60
2022-10-28T12:02:53.562Z,6.50
2022-10-28T12:05:36.995Z,5.00
2022-10-28T12:08:21.965Z,6.50
2022-10-28T12:11:21.626Z,4.60
2022-10-28T12:14:05.077Z,4.50
2022-10-28T12:16:45.669Z,5.50
2022-10-28T12:19:21.742Z,5.60
2022-10-28T12:22:05.282Z,5.00
2022-10-28T12:24:37.158Z,5.50
2022-10-28T12:27:18.278Z,3.90
2022-10-28T12:29:51.937Z,3.10
2022-10-28T12:32:26.069Z,3.00
2022-10-28T12:35:13.957Z,3.00
2022-10-28T12:37:52.911Z,3.20
2022-10-28T12:40:25.960Z,2.70
2022-10-28T12:43:14.268Z,2.80
2022-10-28T12:45:43.015Z,2.70
2022-10-28T12:48:45.103Z,3.40
2022-10-28T12:51:19.328Z,3.30
2022-10-28T12:53:49.647Z,4.10
2022-10-28T12:56:36.991Z,4.30
2022-10-28T12:59:30.262Z,2.90
2022-10-28T13:02:00.740Z,3.60
2022-10-28T13:04:28.430Z,3.10
2022-10-28T13:07:30.756Z,3.20
2022-10-28T13:10:19.088Z,3.60
2022-10-28T13:13:09.292Z,3.80
2022-10-28T13:15:50.366Z,3.60
2022-10-28T13:18:57.618Z,3.30
2022-10-28T13:21:41.745Z,3.50
2022-10-28T13:26:53.515Z,3.50
2022-10-28T13:29:26.800Z,3.40
2022-10-28T13:31:54.967Z,3.20
2022-10-28T13:34:34.259Z,3.50
2022-10-28T13:37:04.832Z,3.70
2022-10-28T13:39:46.587Z,4.00
2022-10-28T13:42:14.220Z,4.50
2022-10-28T13:44:52.919Z,3.60
2022-10-28T13:47:30.127Z,5.00
2022-10-28T13:50:09.147Z,5.00
2022-10-28T13:52:46.821Z,3.40
2022-10-28T13:55:22.444Z,5.60
2022-10-28T13:57:57.841Z,3.60
2022-10-28T14:03:04.334Z,3.80
2022-10-28T14:05:37.351Z,4.00
2022-10-28T14:08:30.549Z,5.40
2022-10-28T14:11:00.304Z,4.80
2022-10-28T14:13:28.350Z,4.30
2022-10-28T14:16:24.548Z,4.40
2022-10-28T14:18:59.641Z,4.70
2022-10-28T14:22:18.095Z,3.20
2022-10-28T14:24:45.140Z,4.10
2022-10-28T14:27:12.370Z,4.30
2022-10-28T14:30:11.541Z,3.90
2022-10-28T14:32:58.154Z,4.10
2022-10-28T14:35:40.172Z,4.20
2022-10-28T14:38:47.024Z,4.60
2022-10-28T14:42:04.746Z,4.30
2022-10-28T14:45:08.588Z,4.00
2022-10-28T14:48:03.602Z,5.40
2022-10-28T14:50:44.706Z,4.80
2022-10-28T14:53:34.465Z,5.60
2022-10-28T14:56:11.501Z,6.10
2022-10-28T14:58:44.036Z,7.10
2022-10-28T15:01:22.921Z,6.40
2022-10-28T15:04:10.807Z,7.30
2022-10-28T15:06:42.415Z,7.50
2022-10-28T15:09:25.617Z,8.80
2022-10-28T15:12:01.477Z,7.90
2022-10-28T15:14:33.390Z,8.80
2022-10-28T15:17:11.520Z,8.60
2022-10-28T15:19:39.634Z,10.00
2022-10-28T15:22:15.627Z,9.60
2022-10-28T15:24:59.954Z,9.30
2022-10-28T15:27:37.291Z,11.00
2022-10-28T15:30:14.851Z,10.20
2022-10-28T15:32:42.170Z,9.90
2022-10-28T15:35:27.814Z,10.50
2022-10-28T15:37:58.674Z,11.90
2022-10-28T15:40:34.672Z,10.70
2022-10-28T15:43:04.375Z,11.30
2022-10-28T15:45:38.323Z,10.90
2022-10-28T15:48:29.041Z,11.10
2022-10-28T15:51:12.560Z,12.60
2022-10-28T15:53:44.317Z,10.90
2022-10-28T15:56:13.969Z,10.80
2022-10-28T15:58:43.492Z,10.50
2022-10-28T16:01:34.755Z,9.90
2022-10-28T16:04:01.993Z,14.70
2022-10-28T16:06:37.999Z,12.50
2022-10-28T16:09:09.122Z,11.30
2022-10-28T16:11:42.040Z,11.60
2022-10-28T16:14:33.650Z,10.10
2022-10-28T16:17:23.243Z,11.30
2022-10-28T16:19:58.237Z,12.10
2022-10-28T16:22:29.141Z,11.20
2022-10-28T16:24:56.945Z,12.90
2022-10-28T16:27:27.973Z,12.00
2022-10-28T16:29:54.964Z,12.90
2022-10-28T16:32:30.771Z,11.40
2022-10-28T16:34:59.891Z,12.90
2022-10-28T16:37:34.498Z,12.40
2022-10-28T16:40:01.520Z,13.90
2022-10-28T16:42:29.810Z,12.80
2022-10-28T16:44:56.940Z,13.10
2022-10-28T16:47:26.320Z,13.70
2022-10-28T16:49:57.290Z,14.50
2022-10-28T16:52:29.494Z,14.50
2022-10-28T16:54:58.121Z,13.40
2022-10-28T16:57:25.925Z,13.80
2022-10-28T16:59:53.881Z,11.30
2022-10-28T17:02:34.259Z,11.90
2022-10-28T17:05:04.640Z,12.80
2022-10-28T17:07:31.697Z,11.00
2022-10-28T17:09:58.734Z,10.60
2022-10-28T17:12:27.320Z,11.20
2022-10-28T17:14:54.429Z,10.70
2022-10-28T17:17:21.467Z,11.90
2022-10-28T17:19:48.651Z,11.40
2022-10-28T17:22:15.782Z,11.20
2022-10-28T17:24:42.760Z,12.50
2022-10-28T17:27:09.987Z,12.20
2022-10-28T17:29:38.180Z,11.40
2022-10-28T17:32:08.844Z,11.50
2022-10-28T17:34:36.547Z,13.10
2022-10-28T17:37:03.967Z,13.10
2022-10-28T17:39:31.168Z,13.40
2022-10-28T17:41:58.323Z,13.00
2022-10-28T17:44:25.765Z,12.80
2022-10-28T17:46:52.902Z,12.70
2022-10-28T17:49:19.929Z,12.30
2022-10-28T17:51:46.900Z,11.70
2022-10-28T17:54:13.987Z,13.30
2022-10-28T17:56:41.435Z,12.40
2022-10-28T17:59:08.944Z,12.80
2022-10-28T18:01:36.325Z,13.00
2022-10-28T18:04:04.971Z,12.20
2022-10-28T18:06:32.205Z,11.80
2022-10-28T18:08:59.401Z,11.80
2022-10-28T18:11:26.829Z,10.80
2022-10-28T18:13:55.737Z,12.10
2022-10-28T18:16:27.268Z,12.60
2022-10-28T18:18:55.501Z,14.10
2022-10-28T18:21:24.043Z,12.80
2022-10-28T18:24:02.923Z,13.20
2022-10-28T18:26:34.939Z,13.40
2022-10-28T18:29:05.721Z,11.50
2022-10-28T18:31:33.605Z,12.00
2022-10-28T18:34:01.671Z,13.00
2022-10-28T18:36:33.714Z,12.50
2022-10-28T18:39:04.549Z,13.30
2022-10-28T18:41:33.951Z,13.50
2022-10-28T18:44:03.919Z,13.10
2022-10-28T18:46:37.295Z,12.20
2022-10-28T18:49:05.056Z,12.20
2022-10-28T18:51:34.048Z,13.20
2022-10-28T18:54:01.697Z,11.70
2022-10-28T18:56:29.850Z,12.20
2022-10-28T18:58:58.373Z,12.00
2022-10-28T19:01:28.269Z,12.10
2022-10-28T19:03:58.315Z,11.40
2022-10-28T19:06:30.144Z,12.90
2022-10-28T19:09:00.326Z,11.90
2022-10-28T19:11:29.773Z,11.60
2022-10-28T19:13:59.555Z,12.50
2022-10-28T19:16:29.364Z,12.70
2022-10-28T19:18:58.519Z,13.80
2022-10-28T19:21:27.172Z,12.70
2022-10-28T19:23:54.851Z,12.40
2022-10-28T19:26:22.617Z,13.30
2022-10-28T19:28:50.414Z,13.50
2022-10-28T19:31:21.004Z,13.90
2022-10-28T19:33:48.696Z,14.20
2022-10-28T19:36:23.310Z,13.40
2022-10-28T19:38:53.163Z,12.50
2022-10-28T19:41:26.293Z,12.40
2022-10-28T19:43:59.255Z,14.10
2022-10-28T19:46:31.109Z,13.30
2022-10-28T19:49:00.308Z,14.40
2022-10-28T19:51:30.443Z,11.60
2022-10-28T19:54:04.478Z,13.60
2022-10-28T19:56:33.821Z,12.10
2022-10-28T19:59:03.751Z,12.30
2022-10-28T20:01:39.080Z,12.30
2022-10-28T20:04:07.630Z,11.90
2022-10-28T20:06:38.966Z,12.00
2022-10-28T20:09:06.760Z,10.50
2022-10-28T20:11:37.152Z,11.50
2022-10-28T20:14:11.910Z,12.50
2022-10-28T20:16:42.021Z,11.40
2022-10-28T20:19:09.259Z,11.50
2022-10-28T20:21:37.759Z,11.10
2022-10-28T20:24:06.454Z,11.50
2022-10-28T20:26:36.215Z,12.10
2022-10-28T20:29:05.998Z,12.40
2022-10-28T20:31:33.250Z,11.80
2022-10-28T20:34:05.450Z,12.10
2022-10-28T20:36:40.600Z,12.20
2022-10-28T20:39:15.953Z,13.70
2022-10-28T20:41:46.042Z,12.50
2022-10-28T20:44:13.201Z,13.10
2022-10-28T20:46:40.606Z,12.90
2022-10-28T20:49:12.589Z,14.10
2022-10-28T20:51:39.996Z,14.80
2022-10-28T20:54:07.528Z,13.60
2022-10-28T20:56:38.261Z,13.90
2022-10-28T20:59:05.677Z,13.90
2022-10-28T21:01:38.976Z,13.10
2022-10-28T21:04:10.490Z,11.40
2022-10-28T21:06:39.337Z,11.60
2022-10-28T21:09:07.292Z,10.50
2022-10-28T21:11:34.488Z,11.80
2022-10-28T21:14:02.149Z,11.10
2022-10-28T21:16:29.933Z,10.70
2022-10-28T21:18:58.814Z,11.30
2022-10-28T21:21:27.240Z,10.40
2022-10-28T21:23:56.392Z,12.50
2022-10-28T21:26:23.353Z,11.30
2022-10-28T21:28:52.275Z,12.50
2022-10-28T21:31:21.308Z,11.90
2022-10-28T21:36:19.912Z,13.20
2022-10-28T21:38:47.573Z,13.70
2022-10-28T21:41:18.959Z,12.70
2022-10-28T21:43:49.636Z,12.50
2022-10-28T21:46:18.653Z,12.80
2022-10-28T21:48:45.947Z,12.80
2022-10-28T21:51:15.453Z,11.50
2022-10-28T21:53:44.314Z,10.50
2022-10-28T21:56:19.283Z,12.30
2022-10-28T21:58:49.364Z,11.30
2022-10-28T22:01:20.603Z,11.10
2022-10-28T22:03:48.365Z,11.80
2022-10-28T22:06:15.580Z,10.40
2022-10-28T22:08:42.745Z,10.60
2022-10-28T22:11:17.178Z,11.20
2022-10-28T22:13:44.749Z,11.10
2022-10-28T22:16:17.521Z,12.20
2022-10-28T22:18:44.799Z,11.00
2022-10-28T22:21:18.917Z,11.70
2022-10-28T22:23:46.704Z,12.30
2022-10-28T22:26:19.832Z,12.60
2022-10-28T22:28:47.631Z,14.30
2022-10-28T22:31:18.355Z,15.40
2022-10-28T22:36:17.305Z,11.40
2022-10-28T22:38:45.156Z,12.10
2022-10-28T22:41:14.525Z,11.40
2022-10-28T22:43:45.282Z,12.80
2022-10-28T22:46:14.496Z,12.30
2022-10-28T22:48:41.589Z,12.00
2022-10-28T22:51:09.252Z,11.60
2022-10-28T22:53:38.408Z,11.20
2022-10-28T22:56:07.467Z,12.30
2022-10-28T22:58:34.997Z,10.70
2022-10-28T23:01:16.902Z,11.70
2022-10-28T23:03:46.818Z,11.10
2022-10-28T23:06:16.771Z,11.80
2022-10-28T23:08:44.551Z,12.10
2022-10-28T23:11:13.535Z,12.70
2022-10-28T23:13:40.748Z,12.80
2022-10-28T23:16:13.326Z,12.60
2022-10-28T23:18:41.541Z,15.40
2022-10-28T23:21:17.122Z,13.00
2022-10-28T23:23:51.178Z,13.40
2022-10-28T23:26:22.189Z,13.50
2022-10-28T23:28:53.836Z,12.80
2022-10-28T23:31:21.644Z,12.80
2022-10-28T23:33:49.668Z,12.30
2022-10-28T23:36:17.024Z,11.30
2022-10-28T23:38:44.189Z,11.50
2022-10-28T23:41:15.668Z,11.70
2022-10-28T23:43:42.724Z,10.50
2022-10-28T23:46:10.872Z,10.00
2022-10-28T23:48:38.349Z,10.40
2022-10-28T23:51:06.208Z,11.00
2022-10-28T23:53:33.537Z,12.00
2022-10-28T23:56:00.840Z,13.00
2022-10-28T23:58:27.867Z,14.20
